Terminal Aerodrome Forecast
Issued by NWS Twin Cities, MN

Home | Current Version | Previous Version | Graphics & Text | Print | Product List | Glossary On
Versions: 1 2 3 4 5 6 7 8 9 10 11 12 13 14 15 16 17
000
FTUS43 KMPX 160910 AAA
TAFEAU
TAF AMD
KEAU 160910Z 1609/1706 07006KT 4SM -SN OVC009
     FM161000 09006KT P6SM BKN009 OVC060
     FM161600 09005KT P6SM OVC060
     FM170300 09005KT P6SM OVC015=

USA.gov is the U.S. government's official web portal to all federal, state and local government web resources and services.